createdAt,value
2022-12-09T00:00:53.639Z,-1.90
2022-12-09T00:03:24.129Z,-1.90
2022-12-09T00:05:55.872Z,-2.00
2022-12-09T00:08:25.968Z,-2.10
2022-12-09T00:10:56.262Z,-2.10
2022-12-09T00:13:26.330Z,-2.10
2022-12-09T00:15:56.429Z,-2.10
2022-12-09T00:18:26.579Z,-2.10
2022-12-09T00:20:58.197Z,-2.10
2022-12-09T00:23:28.874Z,-2.10
2022-12-09T00:26:00.138Z,-2.20
2022-12-09T00:28:30.703Z,-2.30
2022-12-09T00:31:02.949Z,-2.20
2022-12-09T00:33:33.701Z,-2.20
2022-12-09T00:36:10.460Z,-2.10
2022-12-09T00:38:41.370Z,-2.10
2022-12-09T00:41:11.821Z,-2.00
2022-12-09T00:43:41.975Z,-2.00
2022-12-09T00:46:12.536Z,-2.00
2022-12-09T00:48:43.759Z,-2.00
2022-12-09T00:51:18.218Z,-2.00
2022-12-09T00:53:48.663Z,-2.00
2022-12-09T00:56:19.068Z,-2.00
2022-12-09T00:58:49.182Z,-2.00
2022-12-09T01:01:19.691Z,-2.00
2022-12-09T01:03:50.178Z,-2.20
2022-12-09T01:06:24.378Z,-2.20
2022-12-09T01:08:55.117Z,-2.20
2022-12-09T01:11:29.485Z,-2.30
2022-12-09T01:14:05.379Z,-2.20
2022-12-09T01:16:36.644Z,-2.20
2022-12-09T01:19:09.465Z,-2.30
2022-12-09T01:21:41.417Z,-2.30
2022-12-09T01:24:14.202Z,-2.40
2022-12-09T01:26:44.490Z,-2.40
2022-12-09T01:29:14.807Z,-2.50
2022-12-09T01:31:46.069Z,-2.50
2022-12-09T01:34:18.186Z,-2.60
2022-12-09T01:36:50.598Z,-2.60
2022-12-09T01:39:21.940Z,-2.60
2022-12-09T01:41:52.904Z,-2.70
2022-12-09T01:44:26.040Z,-2.70
2022-12-09T01:47:00.364Z,-2.60
2022-12-09T01:49:42.539Z,-2.70
2022-12-09T01:52:19.855Z,-2.50
2022-12-09T01:54:52.192Z,-2.60
2022-12-09T01:57:22.828Z,-2.60
2022-12-09T01:59:53.799Z,-2.60
2022-12-09T02:02:25.900Z,-2.70
2022-12-09T02:04:57.187Z,-2.70
2022-12-09T02:07:32.118Z,-2.80
2022-12-09T02:10:02.643Z,-2.90
2022-12-09T02:12:43.472Z,-3.00
2022-12-09T02:15:20.845Z,-3.00
2022-12-09T02:17:57.590Z,-3.10
2022-12-09T02:20:36.120Z,-3.10
2022-12-09T02:23:17.053Z,-3.20
2022-12-09T02:25:50.924Z,-3.30
2022-12-09T02:28:58.586Z,-3.20
2022-12-09T02:31:46.234Z,-3.20
2022-12-09T02:34:22.236Z,-3.20
2022-12-09T02:37:02.390Z,-3.30
2022-12-09T02:39:37.876Z,-3.30
2022-12-09T02:42:11.180Z,-3.30
2022-12-09T02:44:44.526Z,-3.30
2022-12-09T02:47:18.397Z,-3.30
2022-12-09T02:49:55.278Z,-3.30
2022-12-09T02:52:27.720Z,-3.40
2022-12-09T02:55:01.534Z,-3.40
2022-12-09T02:57:34.540Z,-3.40
2022-12-09T03:00:06.883Z,-3.40
2022-12-09T03:02:40.933Z,-3.50
2022-12-09T03:05:19.635Z,-3.50
2022-12-09T03:07:58.430Z,-3.50
2022-12-09T03:10:36.112Z,-3.50
2022-12-09T03:13:09.338Z,-3.50
2022-12-09T03:15:42.258Z,-3.60
2022-12-09T03:18:16.962Z,-3.50
2022-12-09T03:20:51.406Z,-3.50
2022-12-09T03:23:25.724Z,-3.50
2022-12-09T03:25:57.781Z,-3.60
2022-12-09T03:28:32.786Z,-3.60
2022-12-09T03:31:09.253Z,-3.60
2022-12-09T03:33:40.164Z,-3.60
2022-12-09T03:36:15.532Z,-3.60
2022-12-09T03:38:49.810Z,-3.60
2022-12-09T03:41:27.057Z,-3.60
2022-12-09T03:44:01.693Z,-3.70
2022-12-09T03:46:32.950Z,-3.70
2022-12-09T03:49:03.787Z,-3.60
2022-12-09T03:51:41.074Z,-3.70
2022-12-09T03:54:18.727Z,-3.70
2022-12-09T03:56:53.803Z,-3.70
2022-12-09T03:59:26.240Z,-3.80
2022-12-09T04:01:57.100Z,-3.80
2022-12-09T04:04:27.337Z,-3.80
2022-12-09T04:06:59.897Z,-3.80
2022-12-09T04:09:30.767Z,-3.90
2022-12-09T04:12:00.999Z,-3.90
2022-12-09T04:14:32.354Z,-4.00
2022-12-09T04:17:02.510Z,-4.00
2022-12-09T04:19:32.776Z,-4.00
2022-12-09T04:22:04.777Z,-4.00
2022-12-09T04:24:34.909Z,-4.10
2022-12-09T04:27:04.967Z,-4.10
2022-12-09T04:29:35.104Z,-4.20
2022-12-09T04:32:06.079Z,-4.20
2022-12-09T04:34:37.127Z,-4.20
2022-12-09T04:37:08.848Z,-4.20
2022-12-09T04:39:39.557Z,-4.20
2022-12-09T04:42:09.652Z,-4.10
2022-12-09T04:44:39.936Z,-4.00
2022-12-09T04:47:10.293Z,-4.00
2022-12-09T04:49:42.083Z,-4.00
2022-12-09T04:52:14.233Z,-4.00
2022-12-09T04:54:44.888Z,-4.00
2022-12-09T04:57:15.202Z,-4.00
2022-12-09T04:59:45.365Z,-4.00
2022-12-09T05:02:15.629Z,-4.10
2022-12-09T05:04:47.698Z,-4.10
2022-12-09T05:07:19.720Z,-4.20
2022-12-09T05:09:50.808Z,-4.30
2022-12-09T05:12:21.473Z,-4.40
2022-12-09T05:14:51.802Z,-4.40
2022-12-09T05:17:22.060Z,-4.30
2022-12-09T05:19:52.547Z,-4.20
2022-12-09T05:22:24.502Z,-4.30
2022-12-09T05:24:54.923Z,-4.30
2022-12-09T05:27:25.025Z,-4.30
2022-12-09T05:29:55.373Z,-4.40
2022-12-09T05:32:29.886Z,-4.50
2022-12-09T05:35:00.895Z,-4.60
2022-12-09T05:37:33.411Z,-4.70
2022-12-09T05:40:03.839Z,-4.80
2022-12-09T05:42:39.475Z,-4.80
2022-12-09T05:45:12.528Z,-4.80
2022-12-09T05:47:43.262Z,-4.80
2022-12-09T05:50:15.528Z,-4.80
2022-12-09T05:52:47.864Z,-4.70
2022-12-09T05:55:18.460Z,-4.60
2022-12-09T05:57:48.811Z,-4.50
2022-12-09T06:00:20.983Z,-4.50
2022-12-09T06:02:51.767Z,-4.50
2022-12-09T06:05:22.183Z,-4.50
2022-12-09T06:07:54.694Z,-4.50
2022-12-09T06:10:25.071Z,-4.50
2022-12-09T06:12:57.215Z,-4.60
2022-12-09T06:15:33.204Z,-4.60
2022-12-09T06:18:03.952Z,-4.70
2022-12-09T06:20:34.297Z,-4.60
2022-12-09T06:23:08.042Z,-4.70
2022-12-09T06:25:38.273Z,-4.80
2022-12-09T06:28:08.688Z,-4.80
2022-12-09T06:30:40.116Z,-4.90
2022-12-09T06:33:36.881Z,-4.90
2022-12-09T06:36:04.152Z,-4.90
2022-12-09T06:38:36.458Z,-4.90
2022-12-09T06:41:09.864Z,-4.80
2022-12-09T06:43:40.709Z,-4.80
2022-12-09T06:46:15.462Z,-4.80
2022-12-09T06:48:46.313Z,-4.70
2022-12-09T06:51:24.314Z,-4.60
2022-12-09T06:53:56.611Z,-4.40
2022-12-09T06:56:26.990Z,-4.60
2022-12-09T06:58:58.147Z,-4.50
2022-12-09T07:01:28.628Z,-4.50
2022-12-09T07:03:59.551Z,-4.50
2022-12-09T07:06:33.588Z,-4.60
2022-12-09T07:09:08.111Z,-4.50
2022-12-09T07:11:39.150Z,-4.60
2022-12-09T07:14:09.962Z,-4.60
2022-12-09T07:16:40.668Z,-4.60
2022-12-09T07:19:17.053Z,-4.60
2022-12-09T07:21:47.794Z,-4.60
2022-12-09T07:24:21.374Z,-4.60
2022-12-09T07:26:52.078Z,-4.70
2022-12-09T07:29:22.308Z,-4.70
2022-12-09T07:31:53.503Z,-4.60
2022-12-09T07:34:24.238Z,-4.70
2022-12-09T07:36:54.835Z,-4.80
2022-12-09T07:39:27.473Z,-4.90
2022-12-09T07:41:59.102Z,-4.90
2022-12-09T07:44:29.809Z,-5.00
2022-12-09T07:47:00.332Z,-5.00
2022-12-09T07:49:30.764Z,-5.00
2022-12-09T07:52:01.455Z,-5.10
2022-12-09T07:54:33.198Z,-5.20
2022-12-09T07:57:03.687Z,-5.20
2022-12-09T07:59:34.303Z,-5.20
2022-12-09T08:02:06.695Z,-5.20
2022-12-09T08:04:38.655Z,-5.20
2022-12-09T08:07:09.178Z,-5.10
2022-12-09T08:09:41.266Z,-5.10
2022-12-09T08:12:13.566Z,-5.10
2022-12-09T08:14:43.946Z,-5.10
2022-12-09T08:17:14.210Z,-5.30
2022-12-09T08:19:44.468Z,-5.30
2022-12-09T08:22:15.366Z,-5.20
2022-12-09T08:24:47.451Z,-5.30
2022-12-09T08:27:17.753Z,-5.20
2022-12-09T08:29:48.151Z,-5.10
2022-12-09T08:32:20.245Z,-4.90
2022-12-09T08:34:50.485Z,-4.90
2022-12-09T08:37:20.650Z,-4.90
2022-12-09T08:39:53.265Z,-4.90
2022-12-09T08:42:23.629Z,-4.90
2022-12-09T08:44:58.591Z,-5.00
2022-12-09T08:47:32.486Z,-5.00
2022-12-09T08:50:03.079Z,-4.90
2022-12-09T08:52:38.811Z,-4.90
2022-12-09T08:55:13.344Z,-4.90
2022-12-09T08:57:43.775Z,-4.90
2022-12-09T09:00:15.294Z,-4.90
2022-12-09T09:02:45.710Z,-4.90
2022-12-09T09:05:16.456Z,-4.80
2022-12-09T09:07:47.017Z,-4.80
2022-12-09T09:10:19.437Z,-4.80
2022-12-09T09:12:50.009Z,-4.80
2022-12-09T09:15:20.786Z,-4.80
2022-12-09T09:17:52.294Z,-4.90
2022-12-09T09:20:22.742Z,-4.80
2022-12-09T09:22:56.834Z,-5.00
2022-12-09T09:25:33.361Z,-5.10
2022-12-09T09:28:03.686Z,-5.20
2022-12-09T09:30:34.068Z,-5.10
2022-12-09T09:33:05.862Z,-5.00
2022-12-09T09:35:36.068Z,-5.00
2022-12-09T09:38:06.268Z,-5.00
2022-12-09T09:40:42.983Z,-5.10
2022-12-09T09:43:19.399Z,-5.10
2022-12-09T09:45:50.803Z,-5.10
2022-12-09T09:48:24.545Z,-5.20
2022-12-09T09:51:02.332Z,-5.40
2022-12-09T09:53:34.900Z,-5.30
2022-12-09T09:56:19.862Z,-5.40
2022-12-09T09:58:58.841Z,-5.50
2022-12-09T10:01:33.859Z,-5.60
2022-12-09T10:04:09.877Z,-5.60
2022-12-09T10:06:47.876Z,-5.60
2022-12-09T10:09:25.660Z,-5.60
2022-12-09T10:12:03.762Z,-5.60
2022-12-09T10:14:45.122Z,-5.60
2022-12-09T10:17:26.344Z,-5.70
2022-12-09T10:20:01.315Z,-5.70
2022-12-09T10:22:34.477Z,-5.70
2022-12-09T10:25:18.673Z,-5.70
2022-12-09T10:27:56.072Z,-5.80
2022-12-09T10:30:31.568Z,-5.80
2022-12-09T10:33:06.495Z,-5.90
2022-12-09T10:35:37.345Z,-6.00
2022-12-09T10:38:11.962Z,-6.00
2022-12-09T10:41:01.468Z,-6.00
2022-12-09T10:43:37.798Z,-6.10
2022-12-09T10:46:22.405Z,-6.20
2022-12-09T10:49:02.459Z,-6.30
2022-12-09T10:51:36.723Z,-6.20
2022-12-09T10:54:20.923Z,-6.20
2022-12-09T10:57:08.973Z,-6.20
2022-12-09T10:59:42.488Z,-6.30
2022-12-09T11:02:23.827Z,-6.30
2022-12-09T11:04:54.624Z,-6.40
2022-12-09T11:07:27.133Z,-6.50
2022-12-09T11:10:10.872Z,-6.50
2022-12-09T11:12:42.308Z,-6.50
2022-12-09T11:15:30.584Z,-6.50
2022-12-09T11:18:05.387Z,-6.60
2022-12-09T11:20:37.703Z,-6.60
2022-12-09T11:23:16.960Z,-6.70
2022-12-09T11:25:57.047Z,-6.70
2022-12-09T11:28:30.520Z,-6.80
2022-12-09T11:31:28.402Z,-6.70
2022-12-09T11:33:59.069Z,-6.70
2022-12-09T11:36:33.468Z,-6.60
2022-12-09T11:39:24.365Z,-6.60
2022-12-09T11:42:17.001Z,-6.50
2022-12-09T11:44:59.042Z,-6.50
2022-12-09T11:47:57.224Z,-6.50
2022-12-09T11:50:31.970Z,-6.40
2022-12-09T11:53:26.409Z,-6.40
2022-12-09T11:56:01.215Z,-6.30
2022-12-09T11:58:41.157Z,-6.20
2022-12-09T12:01:17.286Z,-6.20
2022-12-09T12:03:54.315Z,-6.20
2022-12-09T12:06:26.933Z,-6.30
2022-12-09T12:09:05.070Z,-6.40
2022-12-09T12:11:40.581Z,-6.30
2022-12-09T12:14:17.452Z,-6.40
2022-12-09T12:16:53.956Z,-6.30
2022-12-09T12:19:32.535Z,-6.40
2022-12-09T12:22:30.390Z,-6.30
2022-12-09T12:25:18.484Z,-6.30
2022-12-09T12:28:02.678Z,-6.40
2022-12-09T12:30:43.288Z,-6.40
2022-12-09T12:34:07.777Z,-6.50
2022-12-09T12:36:37.742Z,-6.50
2022-12-09T12:39:22.950Z,-6.60
2022-12-09T12:41:59.485Z,-6.60
2022-12-09T12:45:01.114Z,-6.60
2022-12-09T12:47:37.529Z,-6.70
2022-12-09T12:50:35.397Z,-6.60
2022-12-09T12:53:19.157Z,-6.60
2022-12-09T12:55:54.344Z,-6.40
2022-12-09T12:58:45.738Z,-6.40
2022-12-09T13:01:23.047Z,-6.40
2022-12-09T13:04:01.288Z,-6.30
2022-12-09T13:06:40.547Z,-6.40
2022-12-09T13:09:19.186Z,-6.40
2022-12-09T13:12:09.517Z,-6.30
2022-12-09T13:14:54.471Z,-6.20
2022-12-09T13:17:29.256Z,-6.10
2022-12-09T13:20:03.389Z,-6.10
2022-12-09T13:22:38.451Z,-6.10
2022-12-09T13:25:27.785Z,-6.00
2022-12-09T13:28:02.736Z,-5.90
2022-12-09T13:30:38.401Z,-5.90
2022-12-09T13:33:38.940Z,-5.90
2022-12-09T13:36:17.946Z,-5.80
2022-12-09T13:38:48.132Z,-5.90
2022-12-09T13:41:59.274Z,-5.80
2022-12-09T13:44:35.309Z,-5.70
2022-12-09T13:47:38.693Z,-5.70
2022-12-09T13:50:23.102Z,-5.60
2022-12-09T13:52:57.390Z,-5.60
2022-12-09T13:55:37.505Z,-5.60
2022-12-09T13:58:29.057Z,-5.60
2022-12-09T14:01:08.383Z,-5.50
2022-12-09T14:03:48.734Z,-5.50
2022-12-09T14:06:26.029Z,-5.40
2022-12-09T14:09:01.157Z,-5.30
2022-12-09T14:11:49.658Z,-5.20
2022-12-09T14:14:54.443Z,-5.10
2022-12-09T14:18:03.846Z,-5.10
2022-12-09T14:20:36.789Z,-5.10
2022-12-09T14:23:21.746Z,-5.00
2022-12-09T14:26:10.607Z,-5.00
2022-12-09T14:28:55.707Z,-4.90
2022-12-09T14:32:06.292Z,-5.00
2022-12-09T14:35:09.347Z,-4.90
2022-12-09T14:38:09.771Z,-4.80
2022-12-09T14:41:04.836Z,-4.80
2022-12-09T14:43:50.115Z,-4.80
2022-12-09T14:46:30.111Z,-4.70
2022-12-09T14:49:03.424Z,-4.70
2022-12-09T14:51:38.807Z,-4.60
2022-12-09T14:54:17.199Z,-4.60
2022-12-09T14:56:50.708Z,-4.60
2022-12-09T14:59:22.720Z,-4.60
2022-12-09T15:01:57.252Z,-4.50
2022-12-09T15:04:32.987Z,-4.50
2022-12-09T15:07:12.847Z,-4.40
2022-12-09T15:09:52.102Z,-4.40
2022-12-09T15:12:26.675Z,-4.40
2022-12-09T15:15:00.317Z,-4.40
2022-12-09T15:17:32.923Z,-4.30
2022-12-09T15:20:04.813Z,-4.20
2022-12-09T15:22:36.738Z,-4.20
2022-12-09T15:25:08.288Z,-4.10
2022-12-09T15:27:38.398Z,-4.00
2022-12-09T15:30:24.324Z,-3.90
2022-12-09T15:32:54.665Z,-3.90
2022-12-09T15:35:28.255Z,-3.70
2022-12-09T15:38:03.092Z,-3.60
2022-12-09T15:40:35.270Z,-3.40
2022-12-09T15:43:08.349Z,-3.20
2022-12-09T15:45:41.207Z,-2.90
2022-12-09T15:48:14.173Z,-2.80
2022-12-09T15:50:49.438Z,-2.60
2022-12-09T15:53:24.209Z,-2.40
2022-12-09T15:55:58.462Z,-2.20
2022-12-09T15:58:34.854Z,-2.00
2022-12-09T16:01:05.570Z,-1.90
2022-12-09T16:03:37.353Z,-1.60
2022-12-09T16:06:10.571Z,-1.40
2022-12-09T16:08:44.822Z,-1.20
2022-12-09T16:11:15.440Z,-1.10
2022-12-09T16:14:00.407Z,-1.00
2022-12-09T16:16:41.509Z,-0.90
2022-12-09T16:19:34.504Z,-1.00
2022-12-09T16:22:07.756Z,-1.00
2022-12-09T16:27:39.862Z,-0.90
2022-12-09T16:30:23.382Z,-0.90
2022-12-09T16:32:55.481Z,-0.80
2022-12-09T16:35:28.404Z,-0.60
2022-12-09T16:38:19.771Z,-0.50
2022-12-09T16:41:10.398Z,-0.40
2022-12-09T16:43:56.389Z,-0.40
2022-12-09T16:46:46.223Z,-0.30
2022-12-09T16:49:16.373Z,-0.20
2022-12-09T16:51:46.484Z,-0.20
2022-12-09T16:54:20.594Z,-0.10
2022-12-09T16:56:54.227Z,0.00
2022-12-09T16:59:25.150Z,0.00
2022-12-09T17:01:57.513Z,0.10
2022-12-09T17:04:30.328Z,0.10
2022-12-09T17:07:00.768Z,0.20
2022-12-09T17:09:30.898Z,0.40
2022-12-09T17:12:02.586Z,0.40
2022-12-09T17:14:32.811Z,0.40
2022-12-09T17:17:03.326Z,0.40
2022-12-09T17:19:33.640Z,0.40
2022-12-09T17:22:04.087Z,0.50
2022-12-09T17:24:34.177Z,0.50
2022-12-09T17:27:06.208Z,0.50
2022-12-09T17:29:37.602Z,0.60
2022-12-09T17:32:08.588Z,0.70
2022-12-09T17:34:38.951Z,0.80
2022-12-09T17:37:09.249Z,0.80
2022-12-09T17:39:39.587Z,0.80
2022-12-09T17:42:15.765Z,0.80
2022-12-09T17:44:45.856Z,0.80
2022-12-09T17:47:16.054Z,0.80
2022-12-09T17:49:46.161Z,0.90
2022-12-09T17:52:16.323Z,1.00
2022-12-09T17:54:46.516Z,1.00
2022-12-09T17:57:18.545Z,1.00
2022-12-09T17:59:54.680Z,1.00
2022-12-09T18:02:24.891Z,1.10
2022-12-09T18:04:55.170Z,1.10
2022-12-09T18:07:25.222Z,1.10
2022-12-09T18:09:55.912Z,1.10
2022-12-09T18:12:27.618Z,1.30
2022-12-09T18:14:58.122Z,1.30
2022-12-09T18:17:28.157Z,1.30
2022-12-09T18:19:58.333Z,1.40
2022-12-09T18:22:28.429Z,1.30
2022-12-09T18:24:59.069Z,1.20
2022-12-09T18:27:30.806Z,1.20
2022-12-09T18:30:00.868Z,1.10
2022-12-09T18:32:36.035Z,1.20
2022-12-09T18:35:06.774Z,1.20
2022-12-09T18:37:37.328Z,1.30
2022-12-09T18:40:08.550Z,1.30
2022-12-09T18:42:40.817Z,1.30
2022-12-09T18:45:11.964Z,1.50
2022-12-09T18:47:42.423Z,1.50
2022-12-09T18:50:13.026Z,1.60
2022-12-09T18:52:44.259Z,1.40
2022-12-09T18:55:14.287Z,1.20
2022-12-09T18:57:45.879Z,1.10
2022-12-09T19:00:16.578Z,0.80
2022-12-09T19:02:46.750Z,0.40
2022-12-09T19:05:16.868Z,0.00
2022-12-09T19:07:46.951Z,-0.40
2022-12-09T19:10:17.148Z,-0.60
2022-12-09T19:12:55.152Z,-0.90
2022-12-09T19:15:26.743Z,-1.10
2022-12-09T19:17:56.905Z,-1.30
2022-12-09T19:20:27.665Z,-1.40
2022-12-09T19:22:57.903Z,-1.60
2022-12-09T19:25:27.952Z,-1.70
2022-12-09T19:27:59.635Z,-1.80
2022-12-09T19:30:31.030Z,-1.90
2022-12-09T19:33:01.243Z,-2.00
2022-12-09T19:35:31.414Z,-2.00
2022-12-09T19:38:02.271Z,-2.00
2022-12-09T19:40:32.282Z,-2.10
2022-12-09T19:43:03.968Z,-2.10
2022-12-09T19:45:35.417Z,-2.10
2022-12-09T19:48:07.923Z,-2.10
2022-12-09T19:50:38.633Z,-2.20
2022-12-09T19:53:09.291Z,-2.20
2022-12-09T19:55:39.327Z,-2.20
2022-12-09T19:58:11.084Z,-2.10
2022-12-09T20:00:41.776Z,-2.10
2022-12-09T20:03:12.018Z,-2.10
2022-12-09T20:05:51.355Z,-2.10
2022-12-09T20:08:21.571Z,-2.00
2022-12-09T20:10:51.700Z,-2.00
2022-12-09T20:13:26.115Z,-2.00
2022-12-09T20:16:07.924Z,-2.00
2022-12-09T20:18:39.044Z,-2.00
2022-12-09T20:21:10.281Z,-2.00
2022-12-09T20:23:41.947Z,-2.00
2022-12-09T20:26:13.712Z,-2.10
2022-12-09T20:28:46.568Z,-2.10
2022-12-09T20:31:19.305Z,-2.00
2022-12-09T20:33:50.171Z,-2.10
2022-12-09T20:36:24.907Z,-2.20
2022-12-09T20:38:56.767Z,-2.20
2022-12-09T20:41:27.412Z,-2.20
2022-12-09T20:44:06.313Z,-2.30
2022-12-09T20:46:44.127Z,-2.40
2022-12-09T20:49:14.420Z,-2.40
2022-12-09T20:51:46.292Z,-2.40
2022-12-09T20:54:16.984Z,-2.50
2022-12-09T20:56:47.084Z,-2.50
2022-12-09T20:59:18.941Z,-2.70
2022-12-09T21:01:48.980Z,-2.70
2022-12-09T21:04:21.358Z,-2.80
2022-12-09T21:06:51.592Z,-2.80
2022-12-09T21:09:26.395Z,-2.90
2022-12-09T21:11:56.583Z,-2.90
2022-12-09T21:14:33.050Z,-2.90
2022-12-09T21:17:03.560Z,-3.00
2022-12-09T21:19:35.017Z,-3.00
2022-12-09T21:22:06.075Z,-3.10
2022-12-09T21:24:36.200Z,-3.10
2022-12-09T21:27:06.320Z,-3.00
2022-12-09T21:29:38.548Z,-3.10
2022-12-09T21:32:09.488Z,-3.10
2022-12-09T21:34:39.583Z,-3.20
2022-12-09T21:37:09.645Z,-3.20
2022-12-09T21:39:41.784Z,-3.30
2022-12-09T21:42:11.891Z,-3.40
2022-12-09T21:44:43.573Z,-3.50
2022-12-09T21:47:13.632Z,-3.60
2022-12-09T21:49:43.707Z,-3.70
2022-12-09T21:52:13.802Z,-3.60
2022-12-09T21:54:43.936Z,-3.50
2022-12-09T21:57:13.905Z,-3.50
2022-12-09T21:59:45.755Z,-3.40
2022-12-09T22:02:15.853Z,-3.50
2022-12-09T22:04:46.395Z,-3.40
2022-12-09T22:07:16.454Z,-3.50
2022-12-09T22:09:46.630Z,-3.40
2022-12-09T22:12:16.654Z,-3.50
2022-12-09T22:14:48.422Z,-3.50
2022-12-09T22:17:18.433Z,-3.40
2022-12-09T22:20:06.246Z,-3.50
2022-12-09T22:22:39.641Z,-3.50
2022-12-09T22:25:14.110Z,-3.60
2022-12-09T22:27:44.350Z,-3.70
2022-12-09T22:30:18.231Z,-3.70
2022-12-09T22:32:50.918Z,-3.60
2022-12-09T22:35:21.765Z,-3.60
2022-12-09T22:37:51.725Z,-3.60
2022-12-09T22:40:21.846Z,-3.70
2022-12-09T22:42:52.039Z,-3.60
2022-12-09T22:45:23.983Z,-3.60
2022-12-09T22:47:56.140Z,-3.50
2022-12-09T22:50:26.368Z,-3.50
2022-12-09T22:52:57.218Z,-3.50
2022-12-09T22:55:27.405Z,-3.40
2022-12-09T22:57:57.369Z,-3.50
2022-12-09T23:00:29.446Z,-3.50
2022-12-09T23:02:59.603Z,-3.60
2022-12-09T23:05:34.722Z,-3.60
2022-12-09T23:08:05.716Z,-3.70
2022-12-09T23:10:36.123Z,-3.70
2022-12-09T23:13:06.450Z,-3.80
2022-12-09T23:15:38.578Z,-3.70
2022-12-09T23:18:08.718Z,-3.70
2022-12-09T23:20:38.967Z,-3.70
2022-12-09T23:23:09.447Z,-3.70
2022-12-09T23:25:39.556Z,-3.70
2022-12-09T23:28:12.104Z,-3.80
2022-12-09T23:30:43.818Z,-3.80
2022-12-09T23:33:14.519Z,-3.90
2022-12-09T23:35:44.596Z,-3.80
2022-12-09T23:38:14.603Z,-3.90
2022-12-09T23:40:53.094Z,-4.00
2022-12-09T23:43:23.328Z,-4.00
2022-12-09T23:45:56.000Z,-4.10
2022-12-09T23:48:26.583Z,-4.10
2022-12-09T23:50:59.003Z,-4.30
2022-12-09T23:53:29.579Z,-4.40
2022-12-09T23:55:59.707Z,-4.40
2022-12-09T23:58:30.029Z,-4.40
